sensor_id;sensor_type;location;lat;lon;timestamp;P1;durP1;ratioP1;P2;durP2;ratioP2
75898;SDS011;64576;50.460;4.866;2023-06-10T00:01:47;12.52;;;7.78;;
75898;SDS011;64576;50.460;4.866;2023-06-10T00:04:13;10.43;;;6.90;;
75898;SDS011;64576;50.460;4.866;2023-06-10T00:06:40;13.32;;;7.30;;
75898;SDS011;64576;50.460;4.866;2023-06-10T00:09:06;9.40;;;7.10;;
75898;SDS011;64576;50.460;4.866;2023-06-10T00:11:39;10.48;;;7.25;;
75898;SDS011;64576;50.460;4.866;2023-06-10T00:14:04;10.18;;;7.25;;
75898;SDS011;64576;50.460;4.866;2023-06-10T00:16:29;11.23;;;7.25;;
75898;SDS011;64576;50.460;4.866;2023-06-10T00:18:55;11.18;;;7.20;;
75898;SDS011;64576;50.460;4.866;2023-06-10T00:21:21;11.38;;;6.88;;
75898;SDS011;64576;50.460;4.866;2023-06-10T00:23:47;9.95;;;7.45;;
75898;SDS011;64576;50.460;4.866;2023-06-10T00:26:12;11.13;;;7.68;;
75898;SDS011;64576;50.460;4.866;2023-06-10T00:28:38;9.48;;;7.43;;
75898;SDS011;64576;50.460;4.866;2023-06-10T00:31:03;9.75;;;7.05;;
75898;SDS011;64576;50.460;4.866;2023-06-10T00:33:30;11.00;;;7.22;;
75898;SDS011;64576;50.460;4.866;2023-06-10T00:35:55;11.13;;;7.90;;
75898;SDS011;64576;50.460;4.866;2023-06-10T00:38:21;10.57;;;7.30;;
75898;SDS011;64576;50.460;4.866;2023-06-10T00:40:46;11.65;;;6.93;;
75898;SDS011;64576;50.460;4.866;2023-06-10T00:43:13;9.90;;;7.93;;
75898;SDS011;64576;50.460;4.866;2023-06-10T00:45:38;9.60;;;7.25;;
75898;SDS011;64576;50.460;4.866;2023-06-10T00:48:04;9.32;;;7.28;;
75898;SDS011;64576;50.460;4.866;2023-06-10T00:50:30;9.68;;;7.20;;
75898;SDS011;64576;50.460;4.866;2023-06-10T00:52:56;9.50;;;7.68;;
75898;SDS011;64576;50.460;4.866;2023-06-10T00:55:22;9.85;;;7.03;;
75898;SDS011;64576;50.460;4.866;2023-06-10T00:57:48;10.93;;;7.78;;
75898;SDS011;64576;50.460;4.866;2023-06-10T01:00:15;12.48;;;8.10;;
75898;SDS011;64576;50.460;4.866;2023-06-10T01:02:41;11.50;;;7.78;;
75898;SDS011;64576;50.460;4.866;2023-06-10T01:05:07;10.50;;;8.13;;
75898;SDS011;64576;50.460;4.866;2023-06-10T01:07:46;10.70;;;7.75;;
75898;SDS011;64576;50.460;4.866;2023-06-10T01:10:31;12.13;;;7.70;;
75898;SDS011;64576;50.460;4.866;2023-06-10T01:12:59;13.75;;;7.60;;
75898;SDS011;64576;50.460;4.866;2023-06-10T01:15:32;12.10;;;7.63;;
75898;SDS011;64576;50.460;4.866;2023-06-10T01:17:59;9.68;;;7.85;;
75898;SDS011;64576;50.460;4.866;2023-06-10T01:20:30;12.60;;;8.88;;
75898;SDS011;64576;50.460;4.866;2023-06-10T01:22:57;12.20;;;8.68;;
75898;SDS011;64576;50.460;4.866;2023-06-10T01:25:23;10.10;;;7.97;;
75898;SDS011;64576;50.460;4.866;2023-06-10T01:28:02;10.05;;;8.57;;
75898;SDS011;64576;50.460;4.866;2023-06-10T01:30:41;12.48;;;7.78;;
75898;SDS011;64576;50.460;4.866;2023-06-10T01:33:14;13.23;;;8.95;;
75898;SDS011;64576;50.460;4.866;2023-06-10T01:35:43;12.68;;;7.60;;
75898;SDS011;64576;50.460;4.866;2023-06-10T01:38:10;10.30;;;8.00;;
75898;SDS011;64576;50.460;4.866;2023-06-10T01:40:39;11.30;;;8.23;;
75898;SDS011;64576;50.460;4.866;2023-06-10T01:43:05;11.85;;;8.75;;
75898;SDS011;64576;50.460;4.866;2023-06-10T01:45:30;10.57;;;8.20;;
75898;SDS011;64576;50.460;4.866;2023-06-10T01:47:56;13.32;;;8.35;;
75898;SDS011;64576;50.460;4.866;2023-06-10T01:50:21;12.50;;;8.80;;
75898;SDS011;64576;50.460;4.866;2023-06-10T01:52:47;10.57;;;8.00;;
75898;SDS011;64576;50.460;4.866;2023-06-10T01:55:12;10.60;;;9.05;;
75898;SDS011;64576;50.460;4.866;2023-06-10T01:57:38;10.27;;;7.63;;
75898;SDS011;64576;50.460;4.866;2023-06-10T02:00:03;10.70;;;8.30;;
75898;SDS011;64576;50.460;4.866;2023-06-10T02:02:29;13.82;;;10.02;;
75898;SDS011;64576;50.460;4.866;2023-06-10T02:04:54;10.20;;;8.35;;
75898;SDS011;64576;50.460;4.866;2023-06-10T02:07:20;12.55;;;9.05;;
75898;SDS011;64576;50.460;4.866;2023-06-10T02:09:45;10.38;;;8.60;;
75898;SDS011;64576;50.460;4.866;2023-06-10T02:12:10;12.07;;;8.13;;
75898;SDS011;64576;50.460;4.866;2023-06-10T02:14:36;11.15;;;8.50;;
75898;SDS011;64576;50.460;4.866;2023-06-10T02:17:02;12.48;;;8.25;;
75898;SDS011;64576;50.460;4.866;2023-06-10T02:19:27;12.52;;;8.70;;
75898;SDS011;64576;50.460;4.866;2023-06-10T02:21:53;10.63;;;8.57;;
75898;SDS011;64576;50.460;4.866;2023-06-10T02:24:18;11.40;;;8.93;;
75898;SDS011;64576;50.460;4.866;2023-06-10T02:26:43;13.80;;;8.27;;
75898;SDS011;64576;50.460;4.866;2023-06-10T02:29:10;11.77;;;8.77;;
75898;SDS011;64576;50.460;4.866;2023-06-10T02:31:35;11.18;;;8.05;;
75898;SDS011;64576;50.460;4.866;2023-06-10T02:34:02;11.55;;;9.27;;
75898;SDS011;64576;50.460;4.866;2023-06-10T02:36:28;11.45;;;8.65;;
75898;SDS011;64576;50.460;4.866;2023-06-10T02:38:54;13.93;;;9.57;;
75898;SDS011;64576;50.460;4.866;2023-06-10T02:41:19;12.35;;;8.80;;
75898;SDS011;64576;50.460;4.866;2023-06-10T02:43:46;11.38;;;9.20;;
75898;SDS011;64576;50.460;4.866;2023-06-10T02:46:12;11.55;;;7.97;;
75898;SDS011;64576;50.460;4.866;2023-06-10T02:48:41;13.45;;;9.40;;
75898;SDS011;64576;50.460;4.866;2023-06-10T02:51:08;11.95;;;9.32;;
75898;SDS011;64576;50.460;4.866;2023-06-10T02:53:33;12.10;;;8.63;;
75898;SDS011;64576;50.460;4.866;2023-06-10T02:55:59;12.40;;;8.75;;
75898;SDS011;64576;50.460;4.866;2023-06-10T02:58:24;12.93;;;9.18;;
75898;SDS011;64576;50.460;4.866;2023-06-10T03:00:51;10.65;;;8.98;;
75898;SDS011;64576;50.460;4.866;2023-06-10T03:03:16;10.50;;;8.45;;
75898;SDS011;64576;50.460;4.866;2023-06-10T03:05:41;16.20;;;8.82;;
75898;SDS011;64576;50.460;4.866;2023-06-10T03:08:07;10.85;;;9.15;;
75898;SDS011;64576;50.460;4.866;2023-06-10T03:10:32;11.25;;;8.95;;
75898;SDS011;64576;50.460;4.866;2023-06-10T03:12:58;10.95;;;9.00;;
75898;SDS011;64576;50.460;4.866;2023-06-10T03:15:23;11.35;;;9.02;;
75898;SDS011;64576;50.460;4.866;2023-06-10T03:17:49;12.27;;;8.82;;
75898;SDS011;64576;50.460;4.866;2023-06-10T03:20:15;11.55;;;9.15;;
75898;SDS011;64576;50.460;4.866;2023-06-10T03:22:41;11.35;;;9.35;;
75898;SDS011;64576;50.460;4.866;2023-06-10T03:25:07;12.73;;;8.80;;
75898;SDS011;64576;50.460;4.866;2023-06-10T03:27:39;11.85;;;9.30;;
75898;SDS011;64576;50.460;4.866;2023-06-10T03:30:05;11.88;;;9.02;;
75898;SDS011;64576;50.460;4.866;2023-06-10T03:32:31;12.73;;;9.27;;
75898;SDS011;64576;50.460;4.866;2023-06-10T03:34:56;11.02;;;8.88;;
75898;SDS011;64576;50.460;4.866;2023-06-10T03:37:21;11.05;;;8.27;;
75898;SDS011;64576;50.460;4.866;2023-06-10T03:39:47;13.05;;;9.15;;
75898;SDS011;64576;50.460;4.866;2023-06-10T03:42:12;10.32;;;8.55;;
75898;SDS011;64576;50.460;4.866;2023-06-10T03:44:37;10.65;;;8.95;;
75898;SDS011;64576;50.460;4.866;2023-06-10T03:47:03;13.77;;;9.70;;
75898;SDS011;64576;50.460;4.866;2023-06-10T03:49:28;12.52;;;8.43;;
75898;SDS011;64576;50.460;4.866;2023-06-10T03:51:54;12.30;;;8.73;;
75898;SDS011;64576;50.460;4.866;2023-06-10T03:54:20;13.07;;;9.13;;
75898;SDS011;64576;50.460;4.866;2023-06-10T03:56:46;12.40;;;8.70;;
75898;SDS011;64576;50.460;4.866;2023-06-10T03:59:13;13.70;;;9.80;;
75898;SDS011;64576;50.460;4.866;2023-06-10T04:01:38;15.15;;;10.18;;
75898;SDS011;64576;50.460;4.866;2023-06-10T04:04:06;16.15;;;9.57;;
75898;SDS011;64576;50.460;4.866;2023-06-10T04:06:31;13.38;;;9.75;;
75898;SDS011;64576;50.460;4.866;2023-06-10T04:08:56;14.48;;;9.10;;
75898;SDS011;64576;50.460;4.866;2023-06-10T04:11:23;11.40;;;9.23;;
75898;SDS011;64576;50.460;4.866;2023-06-10T04:13:49;12.60;;;9.68;;
75898;SDS011;64576;50.460;4.866;2023-06-10T04:16:14;14.95;;;9.93;;
75898;SDS011;64576;50.460;4.866;2023-06-10T04:18:41;10.85;;;9.40;;
75898;SDS011;64576;50.460;4.866;2023-06-10T04:21:07;13.80;;;9.48;;
75898;SDS011;64576;50.460;4.866;2023-06-10T04:23:33;12.40;;;9.82;;
75898;SDS011;64576;50.460;4.866;2023-06-10T04:25:59;12.68;;;10.07;;
75898;SDS011;64576;50.460;4.866;2023-06-10T04:28:25;12.35;;;9.93;;
75898;SDS011;64576;50.460;4.866;2023-06-10T04:30:50;14.27;;;9.60;;
75898;SDS011;64576;50.460;4.866;2023-06-10T04:33:15;11.48;;;9.50;;
75898;SDS011;64576;50.460;4.866;2023-06-10T04:35:41;14.27;;;9.90;;
75898;SDS011;64576;50.460;4.866;2023-06-10T04:38:07;14.65;;;9.32;;
75898;SDS011;64576;50.460;4.866;2023-06-10T04:40:32;12.88;;;9.77;;
75898;SDS011;64576;50.460;4.866;2023-06-10T04:42:58;11.05;;;9.65;;
75898;SDS011;64576;50.460;4.866;2023-06-10T04:45:23;12.65;;;9.63;;
75898;SDS011;64576;50.460;4.866;2023-06-10T04:47:48;11.95;;;10.00;;
75898;SDS011;64576;50.460;4.866;2023-06-10T04:50:14;13.07;;;9.02;;
75898;SDS011;64576;50.460;4.866;2023-06-10T04:52:40;11.07;;;9.20;;
75898;SDS011;64576;50.460;4.866;2023-06-10T04:55:10;11.73;;;9.52;;
75898;SDS011;64576;50.460;4.866;2023-06-10T04:57:35;12.25;;;9.93;;
75898;SDS011;64576;50.460;4.866;2023-06-10T05:00:01;12.95;;;8.98;;
75898;SDS011;64576;50.460;4.866;2023-06-10T05:02:30;11.38;;;9.27;;
75898;SDS011;64576;50.460;4.866;2023-06-10T05:04:55;12.70;;;9.35;;
75898;SDS011;64576;50.460;4.866;2023-06-10T05:07:22;13.23;;;9.43;;
75898;SDS011;64576;50.460;4.866;2023-06-10T05:09:48;12.63;;;9.45;;
75898;SDS011;64576;50.460;4.866;2023-06-10T05:12:13;10.15;;;9.05;;
75898;SDS011;64576;50.460;4.866;2023-06-10T05:14:39;11.80;;;10.60;;
75898;SDS011;64576;50.460;4.866;2023-06-10T05:17:04;9.82;;;8.70;;
75898;SDS011;64576;50.460;4.866;2023-06-10T05:19:31;10.45;;;9.35;;
75898;SDS011;64576;50.460;4.866;2023-06-10T05:21:57;12.52;;;9.77;;
75898;SDS011;64576;50.460;4.866;2023-06-10T05:24:22;13.15;;;9.75;;
75898;SDS011;64576;50.460;4.866;2023-06-10T05:26:48;10.95;;;9.85;;
75898;SDS011;64576;50.460;4.866;2023-06-10T05:29:14;10.65;;;9.40;;
75898;SDS011;64576;50.460;4.866;2023-06-10T05:31:40;11.18;;;9.38;;
75898;SDS011;64576;50.460;4.866;2023-06-10T05:34:06;12.40;;;9.48;;
75898;SDS011;64576;50.460;4.866;2023-06-10T05:36:31;11.20;;;10.05;;
75898;SDS011;64576;50.460;4.866;2023-06-10T05:38:57;11.77;;;9.75;;
75898;SDS011;64576;50.460;4.866;2023-06-10T05:41:23;11.40;;;9.52;;
75898;SDS011;64576;50.460;4.866;2023-06-10T05:43:48;12.27;;;9.63;;
75898;SDS011;64576;50.460;4.866;2023-06-10T05:46:14;13.93;;;10.95;;
75898;SDS011;64576;50.460;4.866;2023-06-10T05:48:39;11.70;;;10.50;;
75898;SDS011;64576;50.460;4.866;2023-06-10T05:51:04;10.70;;;9.52;;
75898;SDS011;64576;50.460;4.866;2023-06-10T05:53:31;12.00;;;9.82;;
75898;SDS011;64576;50.460;4.866;2023-06-10T05:55:57;13.23;;;9.50;;
75898;SDS011;64576;50.460;4.866;2023-06-10T05:58:23;9.70;;;8.57;;
75898;SDS011;64576;50.460;4.866;2023-06-10T06:00:49;11.35;;;10.20;;
75898;SDS011;64576;50.460;4.866;2023-06-10T06:03:14;9.85;;;8.80;;
75898;SDS011;64576;50.460;4.866;2023-06-10T06:05:40;11.82;;;10.15;;
75898;SDS011;64576;50.460;4.866;2023-06-10T06:08:06;10.40;;;9.30;;
75898;SDS011;64576;50.460;4.866;2023-06-10T06:10:34;10.00;;;9.00;;
75898;SDS011;64576;50.460;4.866;2023-06-10T06:13:00;11.73;;;9.00;;
75898;SDS011;64576;50.460;4.866;2023-06-10T06:15:25;10.90;;;9.63;;
75898;SDS011;64576;50.460;4.866;2023-06-10T06:17:51;12.68;;;10.90;;
75898;SDS011;64576;50.460;4.866;2023-06-10T06:20:21;11.30;;;9.77;;
75898;SDS011;64576;50.460;4.866;2023-06-10T06:22:47;11.88;;;8.77;;
75898;SDS011;64576;50.460;4.866;2023-06-10T06:25:13;10.48;;;9.43;;
75898;SDS011;64576;50.460;4.866;2023-06-10T06:27:38;12.10;;;9.13;;
75898;SDS011;64576;50.460;4.866;2023-06-10T06:30:04;14.68;;;9.20;;
75898;SDS011;64576;50.460;4.866;2023-06-10T06:32:30;11.10;;;9.55;;
75898;SDS011;64576;50.460;4.866;2023-06-10T06:34:55;10.98;;;9.48;;
75898;SDS011;64576;50.460;4.866;2023-06-10T06:37:21;10.38;;;9.38;;
75898;SDS011;64576;50.460;4.866;2023-06-10T06:39:49;11.23;;;10.05;;
75898;SDS011;64576;50.460;4.866;2023-06-10T06:42:15;10.27;;;9.02;;
75898;SDS011;64576;50.460;4.866;2023-06-10T06:44:41;13.38;;;9.07;;
75898;SDS011;64576;50.460;4.866;2023-06-10T06:47:07;11.65;;;9.32;;
75898;SDS011;64576;50.460;4.866;2023-06-10T06:49:32;10.98;;;9.70;;
75898;SDS011;64576;50.460;4.866;2023-06-10T06:51:57;9.73;;;8.75;;
75898;SDS011;64576;50.460;4.866;2023-06-10T06:54:23;12.50;;;10.02;;
75898;SDS011;64576;50.460;4.866;2023-06-10T06:56:48;10.88;;;9.73;;
75898;SDS011;64576;50.460;4.866;2023-06-10T06:59:14;10.32;;;9.15;;
75898;SDS011;64576;50.460;4.866;2023-06-10T07:01:39;11.57;;;9.20;;
75898;SDS011;64576;50.460;4.866;2023-06-10T07:04:05;11.40;;;9.15;;
75898;SDS011;64576;50.460;4.866;2023-06-10T07:06:30;13.07;;;9.38;;
75898;SDS011;64576;50.460;4.866;2023-06-10T07:08:56;12.05;;;9.13;;
75898;SDS011;64576;50.460;4.866;2023-06-10T07:11:23;9.70;;;8.57;;
75898;SDS011;64576;50.460;4.866;2023-06-10T07:13:48;9.82;;;8.32;;
75898;SDS011;64576;50.460;4.866;2023-06-10T07:16:13;9.75;;;8.75;;
75898;SDS011;64576;50.460;4.866;2023-06-10T07:18:39;9.98;;;8.85;;
75898;SDS011;64576;50.460;4.866;2023-06-10T07:21:04;9.55;;;8.65;;
75898;SDS011;64576;50.460;4.866;2023-06-10T07:23:30;9.82;;;8.82;;
75898;SDS011;64576;50.460;4.866;2023-06-10T07:25:55;9.27;;;8.23;;
75898;SDS011;64576;50.460;4.866;2023-06-10T07:28:21;9.73;;;7.68;;
75898;SDS011;64576;50.460;4.866;2023-06-10T07:30:46;9.98;;;7.55;;
75898;SDS011;64576;50.460;4.866;2023-06-10T07:33:11;8.55;;;7.65;;
75898;SDS011;64576;50.460;4.866;2023-06-10T07:35:37;9.88;;;7.47;;
75898;SDS011;64576;50.460;4.866;2023-06-10T07:38:02;9.35;;;7.80;;
75898;SDS011;64576;50.460;4.866;2023-06-10T07:40:28;9.98;;;7.20;;
75898;SDS011;64576;50.460;4.866;2023-06-10T07:42:53;11.30;;;6.88;;
75898;SDS011;64576;50.460;4.866;2023-06-10T07:45:20;8.55;;;7.63;;
75898;SDS011;64576;50.460;4.866;2023-06-10T07:47:45;11.52;;;8.00;;
75898;SDS011;64576;50.460;4.866;2023-06-10T07:50:11;8.65;;;7.18;;
75898;SDS011;64576;50.460;4.866;2023-06-10T07:52:36;8.20;;;7.18;;
75898;SDS011;64576;50.460;4.866;2023-06-10T07:55:01;9.82;;;7.10;;
75898;SDS011;64576;50.460;4.866;2023-06-10T07:57:27;9.07;;;6.93;;
75898;SDS011;64576;50.460;4.866;2023-06-10T07:59:53;9.00;;;6.88;;
75898;SDS011;64576;50.460;4.866;2023-06-10T08:02:19;8.75;;;6.80;;
75898;SDS011;64576;50.460;4.866;2023-06-10T08:04:45;9.18;;;7.13;;
75898;SDS011;64576;50.460;4.866;2023-06-10T08:07:10;9.60;;;6.63;;
75898;SDS011;64576;50.460;4.866;2023-06-10T08:09:37;8.20;;;6.57;;
75898;SDS011;64576;50.460;4.866;2023-06-10T08:12:02;7.65;;;6.90;;
75898;SDS011;64576;50.460;4.866;2023-06-10T08:14:28;9.55;;;6.90;;
75898;SDS011;64576;50.460;4.866;2023-06-10T08:16:53;9.32;;;7.00;;
75898;SDS011;64576;50.460;4.866;2023-06-10T08:19:19;10.05;;;7.05;;
75898;SDS011;64576;50.460;4.866;2023-06-10T08:21:44;7.25;;;6.20;;
75898;SDS011;64576;50.460;4.866;2023-06-10T08:24:09;7.28;;;6.53;;
75898;SDS011;64576;50.460;4.866;2023-06-10T08:26:35;8.55;;;6.10;;
75898;SDS011;64576;50.460;4.866;2023-06-10T08:29:01;7.35;;;6.00;;
75898;SDS011;64576;50.460;4.866;2023-06-10T08:31:26;8.98;;;6.25;;
75898;SDS011;64576;50.460;4.866;2023-06-10T08:33:51;8.95;;;6.30;;
75898;SDS011;64576;50.460;4.866;2023-06-10T08:36:17;7.78;;;6.53;;
75898;SDS011;64576;50.460;4.866;2023-06-10T08:38:42;7.57;;;6.22;;
75898;SDS011;64576;50.460;4.866;2023-06-10T08:41:08;7.95;;;5.90;;
75898;SDS011;64576;50.460;4.866;2023-06-10T08:44:39;6.85;;;5.75;;
75898;SDS011;64576;50.460;4.866;2023-06-10T08:46:37;11.15;;;6.40;;
75898;SDS011;64576;50.460;4.866;2023-06-10T08:49:05;7.95;;;6.95;;
75898;SDS011;64576;50.460;4.866;2023-06-10T08:51:32;9.43;;;6.45;;
75898;SDS011;64576;50.460;4.866;2023-06-10T08:54:11;8.18;;;6.30;;
75898;SDS011;64576;50.460;4.866;2023-06-10T08:56:44;8.35;;;6.57;;
75898;SDS011;64576;50.460;4.866;2023-06-10T08:59:15;7.57;;;6.45;;
75898;SDS011;64576;50.460;4.866;2023-06-10T09:01:44;13.07;;;6.82;;
75898;SDS011;64576;50.460;4.866;2023-06-10T09:04:10;8.65;;;6.05;;
75898;SDS011;64576;50.460;4.866;2023-06-10T09:06:36;8.90;;;6.60;;
75898;SDS011;64576;50.460;4.866;2023-06-10T09:09:03;9.25;;;6.80;;
75898;SDS011;64576;50.460;4.866;2023-06-10T09:11:31;8.23;;;6.80;;
75898;SDS011;64576;50.460;4.866;2023-06-10T09:13:56;9.48;;;6.95;;
75898;SDS011;64576;50.460;4.866;2023-06-10T09:16:22;9.50;;;7.03;;
75898;SDS011;64576;50.460;4.866;2023-06-10T09:18:49;10.32;;;6.50;;
75898;SDS011;64576;50.460;4.866;2023-06-10T09:21:19;7.63;;;6.68;;
75898;SDS011;64576;50.460;4.866;2023-06-10T09:23:48;8.93;;;7.05;;
75898;SDS011;64576;50.460;4.866;2023-06-10T09:26:13;12.07;;;7.15;;
75898;SDS011;64576;50.460;4.866;2023-06-10T09:28:39;10.40;;;7.05;;
75898;SDS011;64576;50.460;4.866;2023-06-10T09:31:07;11.38;;;6.95;;
75898;SDS011;64576;50.460;4.866;2023-06-10T09:33:36;8.80;;;6.88;;
75898;SDS011;64576;50.460;4.866;2023-06-10T09:36:02;8.13;;;6.75;;
75898;SDS011;64576;50.460;4.866;2023-06-10T09:38:32;9.13;;;6.85;;
75898;SDS011;64576;50.460;4.866;2023-06-10T09:40:58;7.63;;;6.78;;
75898;SDS011;64576;50.460;4.866;2023-06-10T09:43:37;8.35;;;6.05;;
75898;SDS011;64576;50.460;4.866;2023-06-10T09:46:17;10.73;;;6.95;;
75898;SDS011;64576;50.460;4.866;2023-06-10T09:48:44;8.93;;;6.82;;
75898;SDS011;64576;50.460;4.866;2023-06-10T09:51:10;9.38;;;6.90;;
75898;SDS011;64576;50.460;4.866;2023-06-10T09:53:37;8.07;;;6.05;;
75898;SDS011;64576;50.460;4.866;2023-06-10T09:56:02;7.75;;;6.20;;
75898;SDS011;64576;50.460;4.866;2023-06-10T09:58:34;8.48;;;6.07;;
75898;SDS011;64576;50.460;4.866;2023-06-10T10:01:04;10.90;;;6.97;;
75898;SDS011;64576;50.460;4.866;2023-06-10T10:03:45;6.95;;;6.22;;
75898;SDS011;64576;50.460;4.866;2023-06-10T10:06:12;7.80;;;6.68;;
75898;SDS011;64576;50.460;4.866;2023-06-10T10:08:39;9.43;;;6.85;;
75898;SDS011;64576;50.460;4.866;2023-06-10T10:11:04;6.90;;;6.18;;
75898;SDS011;64576;50.460;4.866;2023-06-10T10:13:30;9.85;;;7.10;;
75898;SDS011;64576;50.460;4.866;2023-06-10T10:16:00;7.95;;;6.20;;
75898;SDS011;64576;50.460;4.866;2023-06-10T10:18:29;8.63;;;6.22;;
75898;SDS011;64576;50.460;4.866;2023-06-10T10:20:56;9.50;;;7.10;;
75898;SDS011;64576;50.460;4.866;2023-06-10T10:23:26;8.93;;;7.00;;
75898;SDS011;64576;50.460;4.866;2023-06-10T10:28:25;8.93;;;6.80;;
75898;SDS011;64576;50.460;4.866;2023-06-10T10:31:00;8.73;;;6.90;;
75898;SDS011;64576;50.460;4.866;2023-06-10T10:33:36;8.80;;;7.45;;
75898;SDS011;64576;50.460;4.866;2023-06-10T10:36:26;12.00;;;7.00;;
75898;SDS011;64576;50.460;4.866;2023-06-10T10:38:52;7.60;;;6.00;;
75898;SDS011;64576;50.460;4.866;2023-06-10T10:41:19;7.57;;;6.38;;
75898;SDS011;64576;50.460;4.866;2023-06-10T10:43:45;10.60;;;6.93;;
75898;SDS011;64576;50.460;4.866;2023-06-10T10:46:12;12.07;;;6.93;;
75898;SDS011;64576;50.460;4.866;2023-06-10T10:48:40;11.50;;;6.88;;
75898;SDS011;64576;50.460;4.866;2023-06-10T10:51:09;9.35;;;6.57;;
75898;SDS011;64576;50.460;4.866;2023-06-10T10:53:39;7.70;;;6.38;;
75898;SDS011;64576;50.460;4.866;2023-06-10T10:56:09;7.47;;;5.82;;
75898;SDS011;64576;50.460;4.866;2023-06-10T10:58:38;8.68;;;6.18;;
75898;SDS011;64576;50.460;4.866;2023-06-10T11:01:14;7.40;;;6.05;;
75898;SDS011;64576;50.460;4.866;2023-06-10T11:03:43;9.13;;;6.55;;
75898;SDS011;64576;50.460;4.866;2023-06-10T11:06:14;7.90;;;6.30;;
75898;SDS011;64576;50.460;4.866;2023-06-10T11:11:24;9.98;;;6.57;;
75898;SDS011;64576;50.460;4.866;2023-06-10T11:14:04;10.77;;;6.55;;
75898;SDS011;64576;50.460;4.866;2023-06-10T11:16:40;9.35;;;6.32;;
75898;SDS011;64576;50.460;4.866;2023-06-10T11:19:06;7.40;;;6.40;;
75898;SDS011;64576;50.460;4.866;2023-06-10T11:21:32;8.15;;;6.70;;
75898;SDS011;64576;50.460;4.866;2023-06-10T11:24:22;8.23;;;6.30;;
75898;SDS011;64576;50.460;4.866;2023-06-10T11:26:47;8.13;;;6.68;;
75898;SDS011;64576;50.460;4.866;2023-06-10T11:29:14;9.05;;;6.43;;
75898;SDS011;64576;50.460;4.866;2023-06-10T11:31:44;7.70;;;6.35;;
75898;SDS011;64576;50.460;4.866;2023-06-10T11:34:13;9.63;;;6.68;;
75898;SDS011;64576;50.460;4.866;2023-06-10T11:36:43;8.60;;;6.47;;
75898;SDS011;64576;50.460;4.866;2023-06-10T11:39:10;7.38;;;6.40;;
75898;SDS011;64576;50.460;4.866;2023-06-10T11:41:37;8.70;;;5.28;;
75898;SDS011;64576;50.460;4.866;2023-06-10T11:44:07;11.57;;;6.35;;
75898;SDS011;64576;50.460;4.866;2023-06-10T11:46:34;8.52;;;6.30;;
75898;SDS011;64576;50.460;4.866;2023-06-10T11:49:00;7.00;;;6.30;;
75898;SDS011;64576;50.460;4.866;2023-06-10T11:51:37;8.30;;;5.95;;
75898;SDS011;64576;50.460;4.866;2023-06-10T11:54:04;8.27;;;7.20;;
75898;SDS011;64576;50.460;4.866;2023-06-10T11:56:30;8.52;;;6.80;;
75898;SDS011;64576;50.460;4.866;2023-06-10T11:58:57;10.98;;;7.18;;
75898;SDS011;64576;50.460;4.866;2023-06-10T12:01:29;8.85;;;6.38;;
75898;SDS011;64576;50.460;4.866;2023-06-10T12:03:56;6.97;;;6.28;;
75898;SDS011;64576;50.460;4.866;2023-06-10T12:06:22;10.90;;;7.28;;
75898;SDS011;64576;50.460;4.866;2023-06-10T12:08:48;9.50;;;7.13;;
75898;SDS011;64576;50.460;4.866;2023-06-10T12:11:13;8.07;;;7.32;;
75898;SDS011;64576;50.460;4.866;2023-06-10T12:13:45;9.38;;;7.13;;
75898;SDS011;64576;50.460;4.866;2023-06-10T12:16:14;9.20;;;6.57;;
75898;SDS011;64576;50.460;4.866;2023-06-10T12:18:40;10.05;;;6.60;;
75898;SDS011;64576;50.460;4.866;2023-06-10T12:21:16;7.53;;;6.82;;
75898;SDS011;64576;50.460;4.866;2023-06-10T12:24:02;8.63;;;7.72;;
75898;SDS011;64576;50.460;4.866;2023-06-10T12:26:40;9.10;;;8.18;;
75898;SDS011;64576;50.460;4.866;2023-06-10T12:32:03;12.07;;;8.55;;
75898;SDS011;64576;50.460;4.866;2023-06-10T12:34:34;9.48;;;8.07;;
75898;SDS011;64576;50.460;4.866;2023-06-10T12:37:02;11.27;;;8.98;;
75898;SDS011;64576;50.460;4.866;2023-06-10T12:39:29;9.65;;;8.68;;
75898;SDS011;64576;50.460;4.866;2023-06-10T12:41:56;9.98;;;8.93;;
75898;SDS011;64576;50.460;4.866;2023-06-10T12:44:32;11.52;;;8.52;;
75898;SDS011;64576;50.460;4.866;2023-06-10T12:46:59;10.95;;;8.77;;
75898;SDS011;64576;50.460;4.866;2023-06-10T12:49:26;11.15;;;9.02;;
75898;SDS011;64576;50.460;4.866;2023-06-10T12:51:52;9.07;;;8.18;;
75898;SDS011;64576;50.460;4.866;2023-06-10T12:54:18;10.40;;;8.60;;
75898;SDS011;64576;50.460;4.866;2023-06-10T12:56:43;12.65;;;8.45;;
75898;SDS011;64576;50.460;4.866;2023-06-10T12:59:09;9.60;;;8.60;;
75898;SDS011;64576;50.460;4.866;2023-06-10T13:01:35;8.52;;;7.63;;
75898;SDS011;64576;50.460;4.866;2023-06-10T13:04:02;10.40;;;7.90;;
75898;SDS011;64576;50.460;4.866;2023-06-10T13:06:30;10.90;;;7.93;;
75898;SDS011;64576;50.460;4.866;2023-06-10T13:08:57;9.85;;;7.70;;
75898;SDS011;64576;50.460;4.866;2023-06-10T13:11:22;9.77;;;8.48;;
75898;SDS011;64576;50.460;4.866;2023-06-10T13:13:50;11.05;;;8.73;;
75898;SDS011;64576;50.460;4.866;2023-06-10T13:16:16;9.43;;;8.25;;
75898;SDS011;64576;50.460;4.866;2023-06-10T13:18:41;9.38;;;7.50;;
75898;SDS011;64576;50.460;4.866;2023-06-10T13:21:06;11.82;;;8.50;;
75898;SDS011;64576;50.460;4.866;2023-06-10T13:23:32;8.50;;;6.95;;
75898;SDS011;64576;50.460;4.866;2023-06-10T13:25:57;8.80;;;7.45;;
75898;SDS011;64576;50.460;4.866;2023-06-10T13:28:23;10.93;;;8.07;;
75898;SDS011;64576;50.460;4.866;2023-06-10T13:30:49;9.23;;;7.72;;
75898;SDS011;64576;50.460;4.866;2023-06-10T13:33:15;12.65;;;8.07;;
75898;SDS011;64576;50.460;4.866;2023-06-10T13:35:40;11.02;;;7.32;;
75898;SDS011;64576;50.460;4.866;2023-06-10T13:38:06;7.90;;;7.10;;
75898;SDS011;64576;50.460;4.866;2023-06-10T13:40:32;8.90;;;7.75;;
75898;SDS011;64576;50.460;4.866;2023-06-10T13:42:57;8.75;;;6.97;;
75898;SDS011;64576;50.460;4.866;2023-06-10T13:45:23;7.85;;;7.13;;
75898;SDS011;64576;50.460;4.866;2023-06-10T13:47:49;7.95;;;7.15;;
75898;SDS011;64576;50.460;4.866;2023-06-10T13:50:15;7.68;;;6.82;;
75898;SDS011;64576;50.460;4.866;2023-06-10T13:52:40;10.35;;;7.95;;
75898;SDS011;64576;50.460;4.866;2023-06-10T13:55:05;14.50;;;8.38;;
75898;SDS011;64576;50.460;4.866;2023-06-10T13:57:31;8.15;;;7.10;;
75898;SDS011;64576;50.460;4.866;2023-06-10T13:59:56;10.88;;;6.55;;
75898;SDS011;64576;50.460;4.866;2023-06-10T14:02:23;9.18;;;7.35;;
75898;SDS011;64576;50.460;4.866;2023-06-10T14:04:48;7.93;;;7.13;;
75898;SDS011;64576;50.460;4.866;2023-06-10T14:07:14;8.95;;;7.70;;
75898;SDS011;64576;50.460;4.866;2023-06-10T14:09:40;11.63;;;8.80;;
75898;SDS011;64576;50.460;4.866;2023-06-10T14:12:06;9.25;;;8.00;;
75898;SDS011;64576;50.460;4.866;2023-06-10T14:14:31;9.13;;;7.20;;
75898;SDS011;64576;50.460;4.866;2023-06-10T14:16:58;9.40;;;7.43;;
75898;SDS011;64576;50.460;4.866;2023-06-10T14:19:23;14.90;;;10.80;;
75898;SDS011;64576;50.460;4.866;2023-06-10T14:21:48;14.38;;;12.90;;
75898;SDS011;64576;50.460;4.866;2023-06-10T14:24:14;8.20;;;7.10;;
75898;SDS011;64576;50.460;4.866;2023-06-10T14:26:40;8.25;;;7.28;;
75898;SDS011;64576;50.460;4.866;2023-06-10T14:29:05;8.77;;;7.68;;
75898;SDS011;64576;50.460;4.866;2023-06-10T14:31:31;7.85;;;7.05;;
75898;SDS011;64576;50.460;4.866;2023-06-10T14:33:57;10.73;;;7.55;;
75898;SDS011;64576;50.460;4.866;2023-06-10T14:36:23;9.27;;;8.23;;
75898;SDS011;64576;50.460;4.866;2023-06-10T14:38:49;10.82;;;7.97;;
75898;SDS011;64576;50.460;4.866;2023-06-10T14:41:15;8.60;;;7.30;;
75898;SDS011;64576;50.460;4.866;2023-06-10T14:43:40;8.55;;;7.57;;
75898;SDS011;64576;50.460;4.866;2023-06-10T14:46:05;8.70;;;7.80;;
75898;SDS011;64576;50.460;4.866;2023-06-10T14:48:31;10.45;;;7.80;;